Time;durP1;ratioP1;P1;durP2;ratioP2;P2;SDS_P1;SDS_P2;PMS_P1;PMS_P2;Temp;Humidity;BMP_temperature;BMP_pressure;BME280_temperature;BME280_humidity;BME280_pressure;Samples;Min_cycle;Max_cycle;Signal;HPM_P1;HPM_P2
2022/11/21 00:00:29;;;;;;;;;;;;;;;20.04;50.15;99975.44;105661;1271;19720;-64
2022/11/21 00:03:03;;;;;;;;;7.00;7.00;;;;;20.04;50.12;99979.80;105659;1290;19581;-63
2022/11/21 00:05:31;;;;;;;;;10.00;7.00;;;;;20.04;50.11;99978.49;105661;1280;22624;-65
2022/11/21 00:07:58;;;;;;;;;7.50;7.50;;;;;20.04;49.95;99978.04;105674;1297;20439;-65
2022/11/21 00:10:26;;;;;;;;;8.00;6.00;;;;;20.04;50.22;99978.24;105703;1297;18499;-64
2022/11/21 00:12:53;;;;;;;;;8.50;7.50;;;;;20.03;49.86;99975.56;105641;1294;20283;-64
2022/11/21 00:15:21;;;;;;;;;8.00;8.00;;;;;20.03;49.89;99975.60;105620;1279;19310;-66
2022/11/21 00:17:48;;;;;;;;;7.00;6.00;;;;;20.02;50.15;99975.27;105338;1287;443731;-64
2022/11/21 00:20:16;;;;;;;;;7.00;5.00;;;;;20.03;50.02;99972.13;105709;1271;21535;-64
2022/11/21 00:22:43;;;;;;;;;7.00;7.00;;;;;20.03;50.07;99969.75;105706;1297;19307;-64
2022/11/21 00:25:11;;;;;;;;;7.00;7.00;;;;;20.03;50.04;99967.23;105669;1290;22733;-64
2022/11/21 00:27:38;;;;;;;;;6.50;5.00;;;;;20.01;49.97;99969.40;105657;1293;18626;-65
2022/11/21 00:30:06;;;;;;;;;5.00;5.00;;;;;20.01;50.14;99969.02;105667;1296;20297;-65
2022/11/21 00:32:34;;;;;;;;;7.00;5.00;;;;;20.02;49.89;99967.89;105599;1278;18426;-63
2022/11/21 00:35:01;;;;;;;;;9.00;8.00;;;;;20.03;50.01;99974.47;105685;1279;21574;-64
2022/11/21 00:37:29;;;;;;;;;8.00;7.00;;;;;20.03;50.05;99976.69;105696;1282;19196;-64
2022/11/21 00:39:56;;;;;;;;;8.00;7.00;;;;;20.01;50.18;99977.77;105677;1279;18411;-65
2022/11/21 00:42:24;;;;;;;;;8.00;7.00;;;;;20.03;49.88;99980.59;105684;1271;19052;-64
2022/11/21 00:44:52;;;;;;;;;8.00;7.00;;;;;20.03;49.73;99977.23;105726;1271;19473;-64
2022/11/21 00:47:20;;;;;;;;;8.00;7.00;;;;;20.05;49.84;99973.04;105626;1279;18509;-64
2022/11/21 00:49:48;;;;;;;;;5.00;5.00;;;;;20.02;49.74;99966.43;105672;1297;20395;-65
2022/11/21 00:52:15;;;;;;;;;7.00;7.00;;;;;20.02;49.80;99962.45;105714;1296;19298;-64
2022/11/21 00:54:43;;;;;;;;;8.00;7.00;;;;;20.02;49.74;99960.27;105610;1296;24519;-64
2022/11/21 00:57:10;;;;;;;;;7.00;5.00;;;;;20.02;49.84;99965.47;105635;1274;18488;-65
2022/11/21 00:59:38;;;;;;;;;7.00;7.00;;;;;20.02;49.68;99962.29;105661;1279;21991;-64
2022/11/21 01:02:05;;;;;;;;;5.00;5.00;;;;;20.03;49.66;99961.20;105629;1288;18213;-65
2022/11/21 01:04:32;;;;;;;;;;;;;;;20.02;49.63;99965.72;105666;1293;18528;-65
2022/11/21 01:07:00;;;;;;;;;7.50;7.00;;;;;20.02;49.75;99973.33;105686;1271;22346;-65
2022/11/21 01:09:27;;;;;;;;;8.00;8.00;;;;;20.03;49.38;99980.08;105662;1274;18596;-65
2022/11/21 01:11:55;;;;;;;;;8.00;7.00;;;;;20.01;49.52;99978.68;105663;1282;18744;-64
2022/11/21 01:14:22;;;;;;;;;;;;;;;20.00;49.42;99977.34;105661;1303;22671;-65
2022/11/21 01:16:50;;;;;;;;;8.00;7.00;;;;;19.99;49.39;99977.13;105664;1279;18429;-65
2022/11/21 01:19:17;;;;;;;;;7.00;7.00;;;;;20.00;49.53;99974.66;105716;1297;19848;-64
2022/11/21 01:21:44;;;;;;;;;8.00;7.00;;;;;19.99;49.42;99968.95;105695;1297;19293;-64
2022/11/21 01:24:12;;;;;;;;;7.50;7.00;;;;;20.00;49.22;99978.42;105667;1292;18945;-65
2022/11/21 01:26:39;;;;;;;;;7.00;5.00;;;;;20.00;49.34;99976.83;105667;1281;21108;-65
2022/11/21 01:29:07;;;;;;;;;8.00;8.00;;;;;20.00;49.18;99983.99;105700;1279;19378;-65
2022/11/21 01:31:35;;;;;;;;;7.00;7.00;;;;;19.99;49.17;99981.77;105750;1291;20298;-65
2022/11/21 01:34:03;;;;;;;;;8.00;7.00;;;;;20.00;49.21;99983.54;105660;1288;18861;-65
2022/11/21 01:36:30;;;;;;;;;5.00;5.00;;;;;20.00;49.29;99981.89;105649;1282;20815;-65
2022/11/21 01:38:58;;;;;;;;;7.50;6.00;;;;;19.98;49.33;99982.27;105679;1280;18643;-65
2022/11/21 01:41:25;;;;;;;;;10.00;8.00;;;;;19.98;49.12;99990.62;105703;1281;22074;-65
2022/11/21 01:43:53;;;;;;;;;7.00;7.00;;;;;20.00;49.02;99994.04;105662;1297;19320;-65
2022/11/21 01:46:20;;;;;;;;;11.00;10.00;;;;;19.99;48.95;99991.19;105702;1290;19040;-65
2022/11/21 01:48:48;;;;;;;;;10.00;8.00;;;;;19.98;49.10;99988.07;105667;1303;22413;-64
2022/11/21 01:51:15;;;;;;;;;7.00;7.00;;;;;19.98;48.78;99986.31;105669;1280;19202;-64
2022/11/21 01:53:43;;;;;;;;;8.00;8.00;;;;;19.97;48.86;99986.20;105690;1295;18519;-65
2022/11/21 01:56:11;;;;;;;;;10.50;9.00;;;;;19.97;48.84;99994.16;105674;1282;18834;-64
2022/11/21 01:58:39;;;;;;;;;8.00;8.00;;;;;19.98;48.86;99990.48;105687;1300;19867;-64
2022/11/21 02:01:06;;;;;;;;;9.00;8.00;;;;;19.98;48.98;99991.95;105679;1297;18466;-65
2022/11/21 02:03:34;;;;;;;;;10.00;8.00;;;;;19.97;48.66;99986.92;105675;1275;21117;-63
2022/11/21 02:06:02;;;;;;;;;8.00;8.00;;;;;19.97;48.88;99990.05;105613;1288;22649;-63
2022/11/21 02:08:29;;;;;;;;;12.00;8.00;;;;;19.97;48.88;99991.48;105720;1295;21920;-63
2022/11/21 02:10:57;;;;;;;;;8.00;8.00;;;;;19.97;48.73;99991.52;105673;1297;18757;-64
2022/11/21 02:13:25;;;;;;;;;10.50;10.00;;;;;19.97;48.73;99990.77;105712;1296;21709;-63
2022/11/21 02:15:53;;;;;;;;;8.00;7.00;;;;;19.96;48.74;99989.25;105670;1272;18345;-64
2022/11/21 02:18:20;;;;;;;;;10.00;8.00;;;;;19.97;48.60;99990.42;105687;1297;22690;-65
2022/11/21 02:20:48;;;;;;;;;12.00;10.00;;;;;19.97;48.58;99993.90;105665;1289;20764;-65
2022/11/21 02:23:15;;;;;;;;;;;;;;;19.97;48.83;99995.15;105679;1281;22944;-64
2022/11/21 02:25:43;;;;;;;;;8.00;8.00;;;;;19.97;48.54;99993.14;105742;1295;18316;-63
2022/11/21 02:28:11;;;;;;;;;11.00;11.00;;;;;19.94;48.65;99989.65;105631;1281;22477;-65
2022/11/21 02:30:38;;;;;;;;;11.00;10.00;;;;;19.94;48.76;99981.11;105638;1280;22974;-63
2022/11/21 02:33:06;;;;;;;;;12.00;10.00;;;;;19.94;48.59;99972.45;105701;1285;23282;-64
2022/11/21 02:35:33;;;;;;;;;10.00;10.00;;;;;19.95;48.52;99974.38;105710;1279;19305;-64
2022/11/21 02:38:01;;;;;;;;;11.00;10.00;;;;;19.94;48.41;99969.82;105706;1295;18503;-64
2022/11/21 02:40:29;;;;;;;;;10.00;8.00;;;;;19.93;48.44;99965.83;105689;1302;18779;-64
2022/11/21 02:42:56;;;;;;;;;9.50;7.50;;;;;19.94;48.48;99964.67;105649;1298;22178;-64
2022/11/21 02:45:24;;;;;;;;;11.00;10.50;;;;;19.93;48.49;99965.88;105685;1279;18509;-63
2022/11/21 02:47:52;;;;;;;;;12.00;10.00;;;;;19.93;48.34;99965.88;105632;1282;31128;-62
2022/11/21 02:50:19;;;;;;;;;8.00;8.00;;;;;19.93;48.52;99960.77;105653;1274;19463;-65
2022/11/21 02:52:47;;;;;;;;;;;;;;;19.93;48.39;99963.52;105679;1294;18561;-64
2022/11/21 02:55:14;;;;;;;;;10.00;8.00;;;;;19.92;48.41;99966.73;105675;1282;18527;-65
2022/11/21 02:57:42;;;;;;;;;10.00;10.00;;;;;19.93;48.18;99966.75;105715;1289;24427;-65
2022/11/21 03:00:10;;;;;;;;;10.00;8.00;;;;;19.94;48.11;99966.67;105684;1289;18489;-65
2022/11/21 03:02:37;;;;;;;;;10.00;8.00;;;;;19.93;48.28;99961.69;105654;1297;19944;-64
2022/11/21 03:05:05;;;;;;;;;11.00;8.00;;;;;19.94;48.33;99966.35;105660;1272;19188;-63
2022/11/21 03:07:33;;;;;;;;;11.00;10.00;;;;;19.93;48.12;99964.23;105662;1296;22727;-63
2022/11/21 03:10:00;;;;;;;;;10.00;10.00;;;;;19.93;48.08;99970.77;105678;1279;18595;-64
2022/11/21 03:12:28;;;;;;;;;11.50;9.00;;;;;19.93;48.27;99973.87;105653;1274;19440;-64
2022/11/21 03:14:55;;;;;;;;;10.50;10.00;;;;;19.94;48.20;99977.93;105655;1289;19928;-64
2022/11/21 03:17:22;;;;;;;;;8.00;7.00;;;;;19.92;48.18;99978.88;105671;1296;20030;-64
2022/11/21 03:19:50;;;;;;;;;10.00;10.00;;;;;19.93;48.19;99979.21;105702;1297;19725;-64
2022/11/21 03:22:17;;;;;;;;;12.00;10.00;;;;;19.92;48.27;99974.02;105688;1279;27254;-64
2022/11/21 03:24:45;;;;;;;;;10.00;8.00;;;;;19.92;48.00;99971.09;105694;1279;18883;-62
2022/11/21 03:27:12;;;;;;;;;12.00;11.00;;;;;19.92;48.15;99967.85;105671;1295;22181;-63
2022/11/21 03:29:40;;;;;;;;;10.50;10.00;;;;;19.91;47.87;99965.55;105688;1287;18457;-64
2022/11/21 03:32:07;;;;;;;;;9.00;8.00;;;;;19.91;47.98;99960.35;105697;1289;18506;-64
2022/11/21 03:34:35;;;;;;;;;8.00;7.00;;;;;19.91;48.13;99958.00;105744;1298;21032;-64
2022/11/21 03:37:02;;;;;;;;;12.00;10.00;;;;;19.91;48.05;99952.90;105708;1281;18582;-64
2022/11/21 03:39:30;;;;;;;;;11.00;10.50;;;;;19.92;47.88;99952.48;105678;1287;18825;-65
2022/11/21 03:41:58;;;;;;;;;11.00;10.00;;;;;19.91;47.91;99956.85;105692;1297;19314;-65
2022/11/21 03:44:25;;;;;;;;;10.00;8.00;;;;;19.90;47.68;99951.68;105691;1297;18453;-64
2022/11/21 03:46:53;;;;;;;;;;;;;;;19.90;47.93;99946.90;105735;1293;18610;-64
2022/11/21 03:49:20;;;;;;;;;10.00;10.00;;;;;19.89;47.83;99942.80;105742;1297;24205;-65
2022/11/21 03:51:48;;;;;;;;;12.00;10.50;;;;;19.90;47.97;99940.67;105718;1288;18452;-64
2022/11/21 03:54:15;;;;;;;;;11.50;11.00;;;;;19.91;47.89;99940.42;105722;1288;18590;-65
2022/11/21 03:56:43;;;;;;;;;10.00;8.00;;;;;19.90;47.81;99944.23;105694;1297;19300;-64
2022/11/21 03:59:10;;;;;;;;;10.00;8.00;;;;;19.90;47.91;99944.70;105718;1294;18510;-65
2022/11/21 04:01:38;;;;;;;;;10.00;10.00;;;;;19.89;47.77;99947.15;105735;1281;19059;-64
2022/11/21 04:04:06;;;;;;;;;11.00;10.50;;;;;19.89;47.68;99946.81;105641;1298;19584;-65
2022/11/21 04:06:33;;;;;;;;;14.00;10.00;;;;;19.90;47.81;99947.27;105684;1271;18754;-64
2022/11/21 04:09:01;;;;;;;;;11.00;10.00;;;;;19.90;47.74;99947.00;105703;1296;18580;-64
2022/11/21 04:11:28;;;;;;;;;12.50;11.00;;;;;19.89;47.66;99944.31;105692;1271;23943;-66
2022/11/21 04:13:56;;;;;;;;;11.00;10.00;;;;;19.88;47.44;99951.84;105676;1297;18770;-63
2022/11/21 04:16:23;;;;;;;;;11.00;10.00;;;;;19.88;47.54;99952.42;105737;1279;18622;-63
2022/11/21 04:18:51;;;;;;;;;12.00;10.50;;;;;19.88;47.55;99941.20;105665;1297;20646;-64
2022/11/21 04:21:18;;;;;;;;;12.00;11.00;;;;;19.87;47.32;99935.95;105668;1288;20222;-64
2022/11/21 04:23:46;;;;;;;;;13.00;12.50;;;;;19.87;47.66;99932.98;105702;1303;22755;-64
2022/11/21 04:26:13;;;;;;;;;12.00;10.50;;;;;19.88;47.63;99934.30;105731;1294;19442;-63
2022/11/21 04:28:41;;;;;;;;;14.00;10.00;;;;;19.88;47.51;99932.88;105696;1300;18603;-63
2022/11/21 04:31:09;;;;;;;;;11.00;11.00;;;;;19.87;47.65;99936.75;105665;1281;23532;-62
2022/11/21 04:33:36;;;;;;;;;;;;;;;19.88;47.62;99938.27;105651;1297;22223;-65
2022/11/21 04:36:05;;;;;;;;;9.00;9.00;;;;;19.87;47.52;99939.09;105687;1282;22798;-65
2022/11/21 04:38:32;;;;;;;;;11.00;8.00;;;;;19.88;47.29;99948.23;105712;1281;18538;-62
2022/11/21 04:41:00;;;;;;;;;8.00;8.00;;;;;19.87;47.36;99938.17;105685;1279;19288;-65
2022/11/21 04:43:27;;;;;;;;;10.50;8.00;;;;;19.87;47.22;99935.12;105677;1271;18569;-64
2022/11/21 04:45:55;;;;;;;;;10.00;10.00;;;;;19.87;47.42;99932.04;105697;1275;18530;-64
2022/11/21 04:48:23;;;;;;;;;12.00;10.00;;;;;19.88;47.37;99927.06;105682;1295;19273;-64
2022/11/21 04:50:51;;;;;;;;;8.00;7.00;;;;;19.87;47.36;99928.89;105668;1293;20888;-63
2022/11/21 04:53:18;;;;;;;;;10.50;8.00;;;;;19.87;47.30;99926.63;105693;1297;18691;-64
2022/11/21 04:55:46;;;;;;;;;13.00;10.50;;;;;19.86;47.34;99928.67;105765;1298;22730;-64
2022/11/21 04:58:13;;;;;;;;;7.50;7.50;;;;;19.86;47.20;99925.07;105692;1295;18896;-64
2022/11/21 05:00:41;;;;;;;;;11.00;9.00;;;;;19.86;47.41;99918.78;105638;1279;18524;-64
2022/11/21 05:03:08;;;;;;;;;12.00;11.00;;;;;19.85;47.20;99922.79;105713;1294;22038;-64
2022/11/21 05:05:36;;;;;;;;;10.00;10.00;;;;;19.86;47.42;99922.51;105676;1298;18493;-64
2022/11/21 05:08:03;;;;;;;;;12.00;11.00;;;;;19.87;47.38;99924.24;105690;1280;20369;-64
2022/11/21 05:13:19;;;;;;;;;10.00;10.00;;;;;19.86;47.31;99923.98;105738;1297;20853;-62
2022/11/21 05:13:21;;;;;;;;;10.00;10.00;;;;;19.86;47.33;99919.66;105681;1279;18541;-62
2022/11/21 05:15:50;;;;;;;;;11.00;10.00;;;;;19.86;47.27;99921.49;105663;1297;18776;-65
2022/11/21 05:18:17;;;;;;;;;9.00;7.50;;;;;19.86;47.35;99921.28;105717;1298;21082;-64
2022/11/21 05:20:45;;;;;;;;;10.00;8.00;;;;;19.86;47.20;99924.69;105676;1272;20508;-65
2022/11/21 05:23:12;;;;;;;;;11.00;10.00;;;;;19.85;47.26;99917.73;105654;1281;20260;-65
2022/11/21 05:25:40;;;;;;;;;10.00;8.00;;;;;19.84;47.19;99911.66;105689;1297;21042;-65
2022/11/21 05:28:07;;;;;;;;;10.00;10.00;;;;;19.84;47.21;99907.00;105676;1280;18497;-64
2022/11/21 05:30:36;;;;;;;;;14.00;12.50;;;;;19.84;47.23;99898.52;105660;1279;21606;-65
2022/11/21 05:33:03;;;;;;;;;;;;;;;19.84;47.13;99894.88;105697;1279;23212;-64
2022/11/21 05:35:31;;;;;;;;;9.00;8.00;;;;;19.84;47.02;99891.20;105696;1272;18421;-65
2022/11/21 05:37:59;;;;;;;;;10.00;10.00;;;;;19.84;47.23;99886.42;105696;1301;18503;-65
2022/11/21 05:40:27;;;;;;;;;8.00;8.00;;;;;19.84;47.28;99883.83;105692;1297;19448;-64
2022/11/21 05:45:39;;;;;;;;;11.00;11.00;;;;;19.83;47.22;99877.17;105670;1289;18509;-64
2022/11/21 05:48:07;;;;;;;;;14.50;12.50;;;;;19.82;47.22;99872.95;105660;1279;20724;-63
2022/11/21 05:50:35;;;;;;;;;8.00;8.00;;;;;19.83;47.40;99880.90;105695;1284;18545;-63
2022/11/21 05:53:03;;;;;;;;;10.00;9.00;;;;;19.82;47.24;99879.67;105641;1279;18650;-64
2022/11/21 05:55:31;;;;;;;;;8.00;8.00;;;;;19.82;47.29;99878.64;105784;1297;19640;-64
2022/11/21 05:57:58;;;;;;;;;11.00;10.50;;;;;19.83;47.22;99882.19;105671;1295;18832;-65
2022/11/21 06:00:26;;;;;;;;;10.00;10.00;;;;;19.83;47.06;99881.02;105667;1276;18792;-63
2022/11/21 06:05:39;;;;;;;;;10.00;8.00;;;;;19.84;46.96;99869.35;105666;1289;18616;-64
2022/11/21 06:08:06;;;;;;;;;11.00;8.00;;;;;19.84;47.31;99872.08;105656;1293;20196;-64
2022/11/21 06:10:33;;;;;;;;;10.00;8.00;;;;;19.84;47.72;99874.38;105724;1296;19294;-65
2022/11/21 06:13:01;;;;;;;;;11.00;10.00;;;;;19.84;47.69;99875.97;105670;1281;23463;-65
2022/11/21 06:15:29;;;;;;;;;9.50;9.00;;;;;19.83;48.00;99876.13;105678;1295;18610;-64
2022/11/21 06:17:56;;;;;;;;;10.50;9.00;;;;;19.84;47.94;99875.30;105666;1281;19386;-65
2022/11/21 06:20:23;;;;;;;;;11.00;11.00;;;;;19.84;47.57;99875.51;105671;1274;23578;-64
2022/11/21 06:22:52;;;;;;;;;;;;;;;19.86;47.73;99878.70;105724;1297;18606;-65
2022/11/21 06:25:19;;;;;;;;;15.00;14.00;;;;;19.85;47.82;99874.02;105710;1282;20963;-65
2022/11/21 06:27:47;;;;;;;;;14.00;12.00;;;;;19.84;47.59;99872.08;105652;1279;18487;-65
2022/11/21 06:30:15;;;;;;;;;15.00;14.00;;;;;19.85;47.86;99871.13;105486;1282;22178;-65
2022/11/21 06:32:42;;;;;;;;;14.50;11.50;;;;;19.86;48.10;99871.77;105666;1302;22019;-65
2022/11/21 06:35:10;;;;;;;;;14.00;14.00;;;;;19.85;47.92;99865.94;105679;1297;22912;-63
2022/11/21 06:37:37;;;;;;;;;14.50;10.50;;;;;19.84;47.74;99866.73;105734;1296;18821;-65
2022/11/21 06:40:05;;;;;;;;;14.00;11.50;;;;;19.79;47.67;99864.31;105704;1282;19307;-64
2022/11/21 06:42:32;;;;;;;;;11.00;10.00;;;;;19.83;47.84;99864.40;105657;1279;18486;-63
2022/11/21 06:44:59;;;;;;;;;12.00;11.00;;;;;19.85;47.77;99870.95;105689;1296;18584;-64
2022/11/21 06:47:27;;;;;;;;;14.00;14.00;;;;;19.87;47.48;99870.44;105643;1297;22637;-65
2022/11/21 06:49:54;;;;;;;;;15.00;14.00;;;;;19.88;47.49;99875.82;105669;1296;18470;-66
2022/11/21 06:52:22;;;;;;;;;10.00;10.00;;;;;19.89;47.69;99876.95;105718;1297;18613;-66
2022/11/21 06:54:49;;;;;;;;;15.50;12.50;;;;;19.90;47.63;99887.59;105604;1289;19498;-64
2022/11/21 06:57:17;;;;;;;;;;;;;;;19.88;47.46;99887.44;105684;1290;20022;-65
2022/11/21 06:59:44;;;;;;;;;10.00;10.00;;;;;19.88;47.46;99887.23;105687;1288;19105;-66
2022/11/21 07:02:12;;;;;;;;;11.00;10.00;;;;;19.88;47.47;99888.91;105602;1294;19354;-64
2022/11/21 07:04:41;;;;;;;;;11.00;11.00;;;;;19.89;47.42;99890.96;105733;1297;18544;-65
2022/11/21 07:07:08;;;;;;;;;12.50;10.50;;;;;19.88;47.31;99896.52;105681;1300;19019;-66
2022/11/21 07:09:36;;;;;;;;;15.00;12.00;;;;;19.87;47.43;99896.81;105686;1275;19311;-65
2022/11/21 07:14:45;;;;;;;;;14.00;14.00;;;;;19.90;47.20;99903.20;105629;1288;20414;-65
2022/11/21 07:17:12;;;;;;;;;11.00;11.00;;;;;19.89;47.04;99903.92;105644;1300;22812;-65
2022/11/21 07:19:40;;;;;;;;;9.00;9.00;;;;;19.86;47.09;99905.36;105708;1280;20152;-65
2022/11/21 07:22:08;;;;;;;;;12.50;11.00;;;;;19.84;47.26;99903.20;105643;1287;18647;-65
2022/11/21 07:24:36;;;;;;;;;14.00;11.00;;;;;19.86;47.37;99899.46;105724;1297;19361;-65
2022/11/21 07:27:03;;;;;;;;;10.00;10.00;;;;;19.89;47.13;99901.88;105686;1281;18571;-63
2022/11/21 07:29:31;;;;;;;;;10.00;10.00;;;;;19.89;47.18;99904.73;105685;1279;18619;-63
2022/11/21 07:31:58;;;;;;;;;14.00;12.00;;;;;19.90;47.15;99906.66;105671;1296;19300;-65
2022/11/21 07:34:25;;;;;;;;;12.00;11.00;;;;;19.92;47.33;99908.73;105704;1281;18647;-67
2022/11/21 07:36:53;;;;;;;;;10.00;10.00;;;;;19.93;47.30;99909.00;105676;1274;19085;-67
2022/11/21 07:39:20;;;;;;;;;10.00;8.00;;;;;19.92;47.43;99903.88;105731;1280;19324;-65
2022/11/21 07:41:48;;;;;;;;;15.00;12.00;;;;;19.91;47.58;99896.91;105665;1279;18469;-65
2022/11/21 07:44:15;;;;;;;;;12.50;11.00;;;;;19.91;47.48;99899.43;105693;1287;20367;-65
2022/11/21 07:46:43;;;;;;;;;14.00;14.00;;;;;19.91;47.24;99896.70;105698;1297;20997;-64
2022/11/21 07:49:10;;;;;;;;;11.00;11.00;;;;;19.91;47.20;99896.29;105691;1280;18515;-65
2022/11/21 07:51:38;;;;;;;;;12.50;11.50;;;;;19.93;47.24;99899.85;105697;1281;18600;-64
2022/11/21 07:54:06;;;;;;;;;11.00;11.00;;;;;19.94;47.32;99896.14;105657;1274;19678;-63
2022/11/21 07:56:33;;;;;;;;;11.00;10.00;;;;;19.95;47.54;99891.83;105642;1289;18929;-64
2022/11/21 07:59:01;;;;;;;;;12.00;11.00;;;;;19.97;47.65;99887.04;105708;1275;18658;-64
2022/11/21 08:01:28;;;;;;;;;10.50;10.50;;;;;20.02;47.53;99889.73;105687;1296;19293;-65
2022/11/21 08:03:56;;;;;;;;;12.00;10.00;;;;;20.01;47.81;99886.95;105652;1296;18473;-65
2022/11/21 08:06:23;;;;;;;;;11.00;10.00;;;;;20.01;47.96;99882.40;105689;1288;20126;-64
2022/11/21 08:08:50;;;;;;;;;;;;;;;20.02;47.86;99881.36;105674;1279;19440;-64
2022/11/21 08:11:18;;;;;;;;;12.00;10.00;;;;;20.05;48.25;99881.73;105611;1278;19986;-64
2022/11/21 08:13:46;;;;;;;;;10.50;10.00;;;;;20.04;48.11;99878.79;105640;1297;18642;-64
2022/11/21 08:16:13;;;;;;;;;11.00;10.00;;;;;20.04;48.11;99880.79;105680;1282;20721;-63
2022/11/21 08:18:41;;;;;;;;;8.00;8.00;;;;;20.03;48.06;99879.94;105662;1281;18465;-63
2022/11/21 08:21:08;;;;;;;;;9.00;8.00;;;;;20.03;48.36;99877.63;105697;1289;33690;-61
2022/11/21 08:23:36;;;;;;;;;11.00;10.00;;;;;20.04;48.34;99878.80;105643;1279;20970;-62
2022/11/21 08:26:03;;;;;;;;;12.00;10.00;;;;;20.02;48.43;99879.01;105690;1275;18277;-64
2022/11/21 08:28:31;;;;;;;;;14.00;13.00;;;;;20.00;48.61;99876.16;105709;1296;18510;-66
2022/11/21 08:30:58;;;;;;;;;12.50;10.00;;;;;20.00;48.52;99872.73;105669;1295;19309;-66
2022/11/21 08:33:26;;;;;;;;;12.00;10.00;;;;;20.01;48.83;99867.88;105681;1281;19992;-64
2022/11/21 08:35:53;;;;;;;;;12.00;11.00;;;;;20.04;49.02;99871.03;105616;1272;24235;-64
2022/11/21 08:38:21;;;;;;;;;12.00;11.00;;;;;20.05;49.02;99871.22;105617;1289;19386;-64
2022/11/21 08:42:01;;;;;;;;;;;;;;;20.05;49.10;99869.29;105693;1296;18646;-66
2022/11/21 08:43:36;;;;;;;;;10.50;8.00;;;;;20.03;49.22;99870.90;105697;1297;19775;-65
2022/11/21 08:46:04;;;;;;;;;11.00;7.00;;;;;20.01;49.10;99876.75;105678;1279;21049;-65
2022/11/21 08:48:31;;;;;;;;;8.00;7.00;;;;;20.01;49.04;99877.00;105651;1297;18573;-65
2022/11/21 08:50:59;;;;;;;;;8.00;8.00;;;;;19.98;48.99;99874.55;105680;1288;18599;-66
2022/11/21 08:53:26;;;;;;;;;10.50;9.50;;;;;19.98;49.00;99878.61;105693;1298;20185;-66
2022/11/21 08:55:54;;;;;;;;;8.00;8.00;;;;;19.97;48.87;99880.00;105694;1296;18455;-64
2022/11/21 08:58:22;;;;;;;;;27.00;27.00;;;;;19.91;48.75;99885.71;105748;1297;18516;-64
2022/11/21 09:00:49;;;;;;;;;;;;;;;19.68;46.53;99885.95;105697;1279;19314;-66
2022/11/21 09:03:17;;;;;;;;;27.00;24.00;;;;;19.62;46.05;99887.51;105676;1296;18485;-61
2022/11/21 09:05:44;;;;;;;;;27.00;24.00;;;;;19.66;45.20;99885.36;105650;1297;22707;-64
2022/11/21 09:08:12;;;;;;;;;23.00;20.00;;;;;19.71;45.03;99884.27;105612;1297;19313;-62
2022/11/21 09:10:39;;;;;;;;;21.00;20.00;;;;;19.77;44.90;99885.45;105701;1296;18476;-64
2022/11/21 09:13:07;;;;;;;;;17.00;15.00;;;;;19.83;45.42;99878.00;105682;1279;20175;-64
2022/11/21 09:18:19;;;;;;;;;20.00;17.50;;;;;19.76;44.96;99889.68;105631;1295;18554;-63
2022/11/21 09:20:47;;;;;;;;;18.00;18.00;;;;;19.77;45.04;99885.92;105650;1280;18722;-65
2022/11/21 09:23:14;;;;;;;;;;;;;;;19.80;45.06;99883.20;105579;1271;20936;-63
2022/11/21 09:25:41;;;;;;;;;40.00;28.00;;;;;19.85;45.10;99881.29;105684;1279;21195;-66
2022/11/21 09:28:09;;;;;;;;;58.00;41.67;;;;;19.88;45.29;99872.30;105648;1279;18774;-64
2022/11/21 09:30:36;;;;;;;;;73.00;53.00;;;;;19.88;45.28;99870.41;105595;1297;20760;-65
2022/11/21 09:33:04;;;;;;;;;;;;;;;19.85;45.76;99865.64;105677;1274;21665;-65
2022/11/21 09:35:31;;;;;;;;;54.50;44.50;;;;;19.83;46.18;99869.77;105654;1278;22389;-66
2022/11/21 09:37:59;;;;;;;;;57.00;41.50;;;;;19.83;46.27;99864.20;105611;1297;19342;-66
2022/11/21 09:40:26;;;;;;;;;43.00;37.00;;;;;19.83;46.43;99863.98;105702;1279;18470;-66
2022/11/21 09:42:53;;;;;;;;;35.50;33.50;;;;;19.84;46.50;99861.83;105640;1272;22377;-65
2022/11/21 09:45:21;;;;;;;;;36.00;30.50;;;;;19.85;46.49;99865.59;105627;1273;20835;-66
2022/11/21 09:47:48;;;;;;;;;34.00;30.00;;;;;19.88;46.57;99870.49;105659;1279;18551;-63
2022/11/21 09:50:16;;;;;;;;;32.50;26.50;;;;;19.93;46.91;99873.09;105697;1274;22285;-61
2022/11/21 09:52:43;;;;;;;;;30.00;25.00;;;;;19.98;47.15;99869.93;105694;1297;20857;-61
2022/11/21 09:55:11;;;;;;;;;20.50;19.00;;;;;20.00;47.25;99869.16;105644;1297;23181;-63
2022/11/21 09:57:38;;;;;;;;;23.50;20.50;;;;;20.02;47.49;99871.98;105600;1281;18976;-62
2022/11/21 10:00:06;;;;;;;;;18.00;17.00;;;;;20.04;47.41;99869.95;105646;1295;21919;-61
2022/11/21 10:02:33;;;;;;;;;18.00;15.00;;;;;20.03;47.71;99868.69;105680;1297;18582;-62
2022/11/21 10:05:01;;;;;;;;;17.00;14.00;;;;;20.00;47.44;99863.27;105662;1288;18977;-62
2022/11/21 10:07:28;;;;;;;;;15.00;14.00;;;;;19.98;47.58;99856.84;105704;1279;19311;-62
2022/11/21 10:09:56;;;;;;;;;12.50;12.50;;;;;19.95;47.84;99856.89;105629;1272;23156;-62
2022/11/21 10:12:39;;;;;;;;;15.00;12.00;;;;;19.93;47.62;99858.67;105645;1297;18576;-62
2022/11/21 10:15:07;;;;;;;;;17.00;14.00;;;;;19.93;47.85;99855.70;105642;1279;19306;-62
2022/11/21 10:17:34;;;;;;;;;18.00;14.00;;;;;19.91;47.97;99849.52;105667;1289;22394;-62
2022/11/21 10:20:01;;;;;;;;;11.00;10.50;;;;;19.91;47.92;99849.42;105694;1296;18729;-60
2022/11/21 10:22:29;;;;;;;;;14.00;11.00;;;;;19.88;47.79;99843.59;105661;1279;22851;-64
2022/11/21 10:24:57;;;;;;;;;10.00;10.00;;;;;19.87;47.96;99840.24;105728;1279;18512;-64
2022/11/21 10:27:24;;;;;;;;;14.00;12.00;;;;;19.89;47.74;99842.77;105719;1279;18635;-61
2022/11/21 10:29:53;;;;;;;;;15.00;15.00;;;;;19.90;47.76;99834.15;105624;1295;19160;-63
2022/11/21 10:32:21;;;;;;;;;;;;;;;19.91;47.54;99834.37;105710;1288;20199;-62
2022/11/21 10:34:48;;;;;;;;;11.00;10.00;;;;;19.91;47.67;99834.17;105745;1272;18229;-63
2022/11/21 10:37:16;;;;;;;;;11.50;10.00;;;;;19.91;48.04;99830.48;105634;1279;19421;-62
2022/11/21 10:39:43;;;;;;;;;9.33;9.33;;;;;19.91;48.09;99826.04;105665;1295;18476;-62
2022/11/21 10:42:11;;;;;;;;;10.00;8.00;;;;;19.89;47.96;99822.02;105642;1280;18644;-62
2022/11/21 10:47:27;;;;;;;;;10.00;10.00;;;;;19.88;48.33;99818.59;105668;1271;18517;-63
2022/11/21 10:49:54;;;;;;;;;7.50;7.50;;;;;19.88;48.21;99813.65;105736;1297;18780;-63
2022/11/21 10:52:22;;;;;;;;;8.00;8.00;;;;;19.88;48.18;99813.55;105688;1279;22479;-62
2022/11/21 10:54:50;;;;;;;;;8.00;8.00;;;;;19.88;48.17;99816.45;105725;1278;19677;-63
2022/11/21 10:57:17;;;;;;;;;10.50;10.50;;;;;19.87;48.30;99814.38;105666;1297;18439;-62
2022/11/21 10:59:45;;;;;;;;;10.00;8.00;;;;;19.86;48.11;99813.73;105685;1297;19307;-63
2022/11/21 11:02:12;;;;;;;;;8.00;8.00;;;;;19.87;48.42;99810.58;105661;1272;18562;-63
2022/11/21 11:04:40;;;;;;;;;11.00;9.00;;;;;19.87;48.34;99806.96;105677;1291;20175;-62
2022/11/21 11:07:07;;;;;;;;;9.00;8.00;;;;;19.87;48.18;99806.40;105691;1279;20743;-62
2022/11/21 11:09:34;;;;;;;;;10.50;10.00;;;;;19.87;48.27;99805.52;105690;1279;20133;-63
2022/11/21 11:12:02;;;;;;;;;8.00;8.00;;;;;19.88;48.43;99804.85;105625;1281;18628;-61
2022/11/21 11:14:29;;;;;;;;;10.00;8.00;;;;;19.87;48.26;99802.08;105689;1272;19582;-63
2022/11/21 11:16:57;;;;;;;;;11.00;11.00;;;;;19.87;48.52;99801.66;105608;1287;18498;-62
2022/11/21 11:19:24;;;;;;;;;11.00;9.00;;;;;19.90;48.41;99804.87;105620;1278;18680;-63
2022/11/21 11:21:52;;;;;;;;;11.00;10.00;;;;;19.92;48.37;99798.79;105567;1272;22691;-62
2022/11/21 11:24:20;;;;;;;;;8.00;8.00;;;;;19.95;48.13;99802.41;105669;1271;18498;-62
2022/11/21 11:26:47;;;;;;;;;15.00;13.00;;;;;19.95;48.30;99794.25;105672;1279;20077;-62
2022/11/21 11:29:15;;;;;;;;;10.50;10.00;;;;;19.95;48.10;99793.08;105656;1271;19558;-61
2022/11/21 11:31:42;;;;;;;;;8.00;8.00;;;;;19.94;48.46;99796.77;105664;1294;19975;-63
2022/11/21 11:34:10;;;;;;;;;10.50;8.00;;;;;19.91;48.58;99795.68;105625;1289;18548;-63